Time;durP1;ratioP1;P1;durP2;ratioP2;P2;SDS_P1;SDS_P2;PMS_P1;PMS_P2;Temp;Humidity;BMP_temperature;BMP_pressure;BME280_temperature;BME280_humidity;BME280_pressure;Samples;Min_cycle;Max_cycle;Signal;HPM_P1;HPM_P2
2024/03/26 00:02:14;;;;;;;3.70;2.03;;;5.80;1.00;;;;;;5055470;28;20194;-69
2024/03/26 00:04:40;;;;;;;3.27;2.30;;;5.80;1.00;;;;;;5055310;28;20416;-67
2024/03/26 00:07:05;;;;;;;5.40;1.93;;;5.80;1.00;;;;;;5055064;28;20185;-68
2024/03/26 00:09:31;;;;;;;2.80;2.30;;;5.70;1.00;;;;;;5037338;28;20182;-69
2024/03/26 00:11:57;;;;;;;3.87;2.50;;;5.70;1.00;;;;;;5055086;28;20199;-68
2024/03/26 00:14:22;;;;;;;3.80;2.10;;;5.70;1.00;;;;;;5055082;28;20452;-68
2024/03/26 00:16:48;;;;;;;3.60;1.93;;;5.60;1.00;;;;;;5054944;28;20645;-68
2024/03/26 00:19:14;;;;;;;2.67;2.13;;;5.50;1.00;;;;;;5054943;28;20252;-68
2024/03/26 00:21:40;;;;;;;2.93;2.20;;;5.50;1.00;;;;;;5054867;28;20223;-67
2024/03/26 00:24:05;;;;;;;3.47;2.60;;;5.50;1.00;;;;;;5054662;28;20467;-67
2024/03/26 00:26:35;;;;;;;3.37;1.70;;;5.50;1.00;;;;;;5054907;28;20217;-67
2024/03/26 00:29:01;;;;;;;3.33;2.40;;;5.50;1.00;;;;;;5036529;28;20232;-68
2024/03/26 00:31:31;;;;;;;2.63;1.80;;;5.50;1.00;;;;;;5054909;28;20762;-68
2024/03/26 00:33:58;;;;;;;4.23;2.27;;;5.50;1.00;;;;;;5054323;28;20260;-67
2024/03/26 00:36:23;;;;;;;3.23;1.60;;;5.50;1.00;;;;;;5054749;28;20405;-67
2024/03/26 00:38:49;;;;;;;2.40;2.20;;;5.50;1.00;;;;;;5036467;28;20428;-67
2024/03/26 00:41:14;;;;;;;4.50;2.30;;;5.40;1.00;;;;;;5054553;28;20674;-68
2024/03/26 00:43:40;;;;;;;3.97;1.73;;;5.30;1.00;;;;;;5054767;28;20182;-67
2024/03/26 00:46:05;;;;;;;6.63;2.60;;;5.20;1.00;;;;;;5054406;28;20179;-67
2024/03/26 00:48:31;;;;;;;2.53;1.80;;;5.30;1.00;;;;;;5054152;28;20174;-68
2024/03/26 00:50:56;;;;;;;2.30;2.07;;;5.20;1.00;;;;;;5054619;28;20727;-68
2024/03/26 00:53:22;;;;;;;2.73;1.93;;;5.30;1.00;;;;;;5054266;28;20175;-69
2024/03/26 00:55:47;;;;;;;4.70;2.00;;;5.20;1.00;;;;;;5054356;28;20182;-68
2024/03/26 00:58:13;;;;;;;4.13;1.90;;;5.10;1.00;;;;;;5054000;28;20258;-68
2024/03/26 01:00:38;;;;;;;3.03;2.00;;;5.10;1.00;;;;;;5036017;28;20191;-69
2024/03/26 01:03:04;;;;;;;3.63;2.27;;;5.00;1.00;;;;;;5053808;28;20197;-69
2024/03/26 01:05:30;;;;;;;2.60;1.83;;;4.90;1.00;;;;;;5054050;28;20264;-68
2024/03/26 01:07:55;;;;;;;4.53;2.30;;;4.80;1.00;;;;;;5054032;28;20800;-68
2024/03/26 01:10:21;;;;;;;4.63;2.30;;;4.80;1.00;;;;;;5053900;28;20200;-67
2024/03/26 01:12:46;;;;;;;3.60;3.10;;;4.80;1.00;;;;;;5054042;28;20251;-67
2024/03/26 01:15:12;;;;;;;2.67;1.83;;;4.70;1.00;;;;;;5053933;28;20303;-69
2024/03/26 01:17:37;;;;;;;3.57;1.80;;;4.60;1.00;;;;;;5053716;28;20193;-68
2024/03/26 01:20:04;;;;;;;4.83;2.23;;;4.60;1.00;;;;;;5054071;28;20582;-68
2024/03/26 01:22:30;;;;;;;3.10;2.20;;;4.60;1.00;;;;;;5053764;28;20289;-67
2024/03/26 01:24:55;;;;;;;6.60;2.37;;;4.60;1.00;;;;;;5053712;28;20459;-68
2024/03/26 01:27:21;;;;;;;3.40;2.30;;;4.60;1.00;;;;;;5053581;28;20567;-68
2024/03/26 01:29:46;;;;;;;3.47;1.87;;;4.60;1.00;;;;;;5053675;28;20559;-69
2024/03/26 01:32:12;;;;;;;4.63;2.10;;;4.60;1.00;;;;;;5053576;28;20244;-68
2024/03/26 01:34:37;;;;;;;5.73;2.60;;;4.60;1.00;;;;;;5053509;28;20248;-69
2024/03/26 01:37:03;;;;;;;3.23;2.40;;;4.50;1.00;;;;;;5053339;28;20181;-68
2024/03/26 01:39:28;;;;;;;4.70;2.20;;;4.50;1.00;;;;;;5053532;28;20183;-70
2024/03/26 01:41:54;;;;;;;3.70;2.50;;;4.40;1.00;;;;;;5053309;28;20222;-67
2024/03/26 01:44:20;;;;;;;3.63;2.60;;;4.40;1.00;;;;;;5035496;28;20664;-68
2024/03/26 01:46:45;;;;;;;3.60;2.10;;;4.30;1.00;;;;;;5052902;28;20188;-69
2024/03/26 01:49:14;;;;;;;3.40;2.20;;;4.30;1.00;;;;;;5053163;28;20424;-69
2024/03/26 01:51:40;;;;;;;3.13;2.27;;;4.30;1.00;;;;;;5053371;28;20723;-69
2024/03/26 01:54:06;;;;;;;3.28;2.10;;;4.20;1.00;;;;;;5053176;28;20466;-68
2024/03/26 01:56:32;;;;;;;4.25;2.17;;;4.20;1.00;;;;;;5053286;28;20204;-68
2024/03/26 01:58:58;;;;;;;8.53;3.30;;;4.10;1.00;;;;;;5053132;28;20537;-69
2024/03/26 02:01:26;;;;;;;2.20;1.60;;;4.10;1.00;;;;;;5053563;28;20574;-69
2024/03/26 02:03:53;;;;;;;3.03;2.10;;;4.00;1.00;;;;;;5053118;28;20414;-69
2024/03/26 02:06:19;;;;;;;2.78;2.00;;;4.00;1.00;;;;;;5053242;28;20231;-69
2024/03/26 02:08:45;;;;;;;4.93;2.20;;;4.00;1.00;;;;;;5052897;28;20179;-69
2024/03/26 02:11:11;;;;;;;4.00;2.30;;;3.90;1.00;;;;;;5053997;28;20437;-70
2024/03/26 02:13:37;;;;;;;4.63;2.80;;;3.90;1.00;;;;;;5053606;28;20198;-69
2024/03/26 02:16:02;;;;;;;2.13;1.50;;;3.80;1.00;;;;;;5053420;28;20666;-67
2024/03/26 02:18:28;;;;;;;4.50;2.67;;;3.80;1.00;;;;;;5052803;28;20302;-68
2024/03/26 02:20:53;;;;;;;5.80;2.23;;;3.70;1.00;;;;;;5052560;28;20256;-67
2024/03/26 02:23:20;;;;;;;3.53;2.60;;;3.70;1.00;;;;;;5052479;28;20654;-66
2024/03/26 02:25:46;;;;;;;4.22;2.50;;;3.70;1.00;;;;;;5053002;28;20188;-67
2024/03/26 02:28:11;;;;;;;4.10;2.90;;;3.80;1.00;;;;;;5052335;28;20174;-69
2024/03/26 02:30:37;;;;;;;2.93;2.30;;;3.70;1.00;;;;;;5052345;28;20203;-68
2024/03/26 02:33:02;;;;;;;4.60;2.47;;;3.70;1.00;;;;;;5052540;28;20180;-68
2024/03/26 02:35:28;;;;;;;3.87;2.17;;;3.70;1.00;;;;;;5052730;28;20293;-67
2024/03/26 02:37:54;;;;;;;3.97;2.37;;;3.70;1.00;;;;;;5052765;28;20172;-69
2024/03/26 02:40:19;;;;;;;5.00;2.80;;;3.70;1.00;;;;;;5053130;28;20225;-68
2024/03/26 02:42:46;;;;;;;3.13;1.83;;;3.70;1.00;;;;;;5085199;23;20496;-73
2024/03/26 02:45:12;;;;;;;4.75;2.20;;;3.70;1.00;;;;;;5058119;28;20175;-72
2024/03/26 02:47:38;;;;;;;3.97;2.23;;;3.70;1.00;;;;;;5090441;28;20273;-71
2024/03/26 02:50:04;;;;;;;2.83;1.90;;;3.70;1.00;;;;;;5084465;28;20534;-72
2024/03/26 02:52:29;;;;;;;3.85;2.00;;;3.60;1.00;;;;;;5089200;28;20234;-72
2024/03/26 02:54:58;;;;;;;4.40;2.30;;;3.50;1.00;;;;;;5083081;28;20206;-73
2024/03/26 02:57:23;;;;;;;3.90;1.90;;;3.50;1.00;;;;;;5066842;28;20183;-74
2024/03/26 02:59:49;;;;;;;4.80;2.30;;;3.50;1.00;;;;;;5075897;28;20237;-73
2024/03/26 03:02:14;;;;;;;2.33;1.70;;;3.40;1.00;;;;;;5074064;28;20402;-73
2024/03/26 03:04:40;;;;;;;4.20;2.30;;;3.40;1.00;;;;;;5056267;28;20180;-72
2024/03/26 03:07:05;;;;;;;4.10;2.10;;;3.30;1.00;;;;;;5055442;28;20176;-73
2024/03/26 03:09:33;;;;;;;5.07;2.27;;;3.30;1.00;;;;;;5073990;28;20300;-73
2024/03/26 03:11:59;;;;;;;3.55;2.30;;;3.30;1.00;;;;;;5073600;28;20194;-72
2024/03/26 03:14:24;;;;;;;4.40;2.23;;;3.30;1.00;;;;;;5073584;28;20221;-72
2024/03/26 03:16:50;;;;;;;2.30;1.77;;;3.20;1.00;;;;;;5055370;28;20179;-73
2024/03/26 03:19:15;;;;;;;3.40;2.20;;;3.20;1.00;;;;;;5073237;28;20267;-72
2024/03/26 03:21:44;;;;;;;2.83;1.87;;;3.10;1.00;;;;;;5055231;28;20194;-72
2024/03/26 03:24:09;;;;;;;4.55;2.22;;;3.10;1.00;;;;;;5073602;28;20199;-73
2024/03/26 03:26:35;;;;;;;5.40;2.80;;;3.10;1.00;;;;;;5074065;28;20600;-72
2024/03/26 03:29:03;;;;;;;5.17;2.03;;;3.20;1.00;;;;;;5073748;28;20183;-73
2024/03/26 03:31:29;;;;;;;3.47;1.90;;;3.20;1.00;;;;;;5073984;28;20202;-72
2024/03/26 03:33:55;;;;;;;3.27;2.10;;;3.20;1.00;;;;;;5074009;28;20195;-73
2024/03/26 03:36:23;;;;;;;4.90;2.57;;;3.30;1.00;;;;;;5074421;28;20176;-71
2024/03/26 03:38:49;;;;;;;5.53;2.45;;;3.40;1.00;;;;;;5057769;28;20579;-71
2024/03/26 03:41:14;;;;;;;3.27;2.10;;;3.50;1.00;;;;;;5074417;28;20199;-71
2024/03/26 03:43:40;;;;;;;4.27;2.20;;;3.70;1.00;;;;;;5072161;28;20183;-71
2024/03/26 03:46:05;;;;;;;3.87;2.37;;;3.70;1.00;;;;;;5054645;28;20179;-72
2024/03/26 03:48:31;;;;;;;3.53;2.00;;;3.90;1.00;;;;;;5072190;28;20185;-72
2024/03/26 03:50:56;;;;;;;7.90;2.33;;;3.90;1.00;;;;;;5072536;28;20211;-72
2024/03/26 03:53:22;;;;;;;3.17;2.30;;;3.90;1.00;;;;;;5054583;28;20752;-70
2024/03/26 03:55:48;;;;;;;3.57;1.90;;;4.00;1.00;;;;;;5072027;28;20187;-70
2024/03/26 03:58:14;;;;;;;4.77;2.60;;;4.00;1.00;;;;;;5071739;28;20226;-71
2024/03/26 04:00:40;;;;;;;3.58;2.15;;;4.00;1.00;;;;;;5055291;28;20504;-72
2024/03/26 04:03:05;;;;;;;5.63;1.80;;;4.00;1.00;;;;;;5074562;28;20221;-71
2024/03/26 04:05:31;;;;;;;3.07;2.40;;;4.00;1.00;;;;;;5074583;28;20211;-71
2024/03/26 04:07:56;;;;;;;3.60;2.57;;;4.00;1.00;;;;;;5056803;28;20664;-72
2024/03/26 04:10:22;;;;;;;5.07;2.40;;;4.10;1.00;;;;;;5078092;28;20646;-71
2024/03/26 04:12:47;;;;;;;3.87;2.60;;;4.10;1.00;;;;;;5079095;28;20204;-72
2024/03/26 04:15:13;;;;;;;3.73;2.93;;;4.20;1.00;;;;;;5060796;28;20236;-70
2024/03/26 04:17:38;;;;;;;4.00;2.57;;;4.30;1.00;;;;;;5075095;28;20192;-71
2024/03/26 04:20:05;;;;;;;3.13;2.00;;;4.30;1.00;;;;;;5074849;28;20186;-71
2024/03/26 04:22:30;;;;;;;2.92;2.13;;;4.30;1.00;;;;;;5056689;28;20199;-71
2024/03/26 04:24:56;;;;;;;4.00;2.60;;;4.40;1.00;;;;;;5074711;28;20197;-72
2024/03/26 04:27:22;;;;;;;3.67;2.07;;;4.40;1.00;;;;;;5074524;28;20409;-72
2024/03/26 04:29:47;;;;;;;3.67;2.27;;;4.40;1.00;;;;;;5074654;28;20207;-71
2024/03/26 04:32:13;;;;;;;3.53;2.13;;;4.40;1.00;;;;;;5074444;28;20196;-71
2024/03/26 04:34:39;;;;;;;3.17;2.67;;;4.50;1.00;;;;;;5056529;28;20286;-72
2024/03/26 04:37:07;;;;;;;4.80;2.80;;;4.50;1.00;;;;;;5074486;28;20607;-71
2024/03/26 04:39:33;;;;;;;6.20;3.25;;;4.60;1.00;;;;;;5075450;28;20951;-72
2024/03/26 04:41:58;;;;;;;5.40;2.30;;;4.60;1.00;;;;;;5057866;28;20218;-71
2024/03/26 04:44:24;;;;;;;5.07;2.33;;;4.60;1.00;;;;;;5075645;28;20181;-70
2024/03/26 04:46:49;;;;;;;3.37;2.03;;;4.60;1.00;;;;;;5056570;28;20184;-71
2024/03/26 04:49:15;;;;;;;4.77;2.70;;;4.60;1.00;;;;;;5074427;28;20191;-71
2024/03/26 04:51:40;;;;;;;4.80;2.70;;;4.60;1.00;;;;;;5074467;28;20211;-71
2024/03/26 04:54:06;;;;;;;4.10;2.20;;;4.60;1.00;;;;;;5056118;28;20297;-70
2024/03/26 04:56:32;;;;;;;4.80;2.33;;;4.70;1.00;;;;;;5074265;28;20260;-70
2024/03/26 04:58:58;;;;;;;2.73;2.27;;;4.70;1.00;;;;;;5073837;28;20220;-72
2024/03/26 05:01:23;;;;;;;3.90;2.20;;;4.70;1.00;;;;;;5055939;28;20289;-72
2024/03/26 05:03:49;;;;;;;7.17;2.70;;;4.80;1.00;;;;;;5073833;28;20417;-71
2024/03/26 05:06:14;;;;;;;3.07;1.60;;;4.80;1.00;;;;;;5073817;28;20188;-70
2024/03/26 05:08:41;;;;;;;3.43;2.70;;;4.80;1.00;;;;;;5073793;28;20177;-70
2024/03/26 05:11:06;;;;;;;3.27;2.33;;;4.90;1.00;;;;;;5073997;28;20286;-71
2024/03/26 05:13:32;;;;;;;3.37;2.80;;;4.90;1.00;;;;;;5073517;28;20457;-70
2024/03/26 05:15:59;;;;;;;4.80;2.97;;;4.90;1.00;;;;;;5073743;28;20586;-71
2024/03/26 05:18:24;;;;;;;3.63;2.93;;;4.90;1.00;;;;;;5073420;28;20577;-71
2024/03/26 05:20:50;;;;;;;3.90;2.80;;;5.00;1.00;;;;;;5054159;28;20456;-71
2024/03/26 05:23:15;;;;;;;3.33;2.47;;;5.00;1.00;;;;;;5073760;28;20180;-70
2024/03/26 05:25:41;;;;;;;10.00;2.57;;;5.10;1.00;;;;;;5073545;28;20197;-71
2024/03/26 05:28:06;;;;;;;3.50;2.70;;;5.20;1.00;;;;;;5073452;28;20181;-69
2024/03/26 05:30:32;;;;;;;6.40;2.57;;;5.20;1.00;;;;;;5055494;28;20180;-71
2024/03/26 05:32:57;;;;;;;2.83;2.00;;;5.30;1.00;;;;;;5055489;28;20703;-72
2024/03/26 05:35:23;;;;;;;6.47;2.90;;;5.40;1.00;;;;;;5055784;28;20219;-70
2024/03/26 05:37:49;;;;;;;4.30;2.60;;;5.40;1.00;;;;;;5078322;28;20189;-71
2024/03/26 05:40:15;;;;;;;4.60;3.03;;;5.40;1.00;;;;;;5084296;28;20180;-69
2024/03/26 05:42:41;;;;;;;4.83;2.90;;;5.50;1.00;;;;;;5063135;28;20534;-73
2024/03/26 05:45:07;;;;;;;4.50;2.40;;;5.60;1.00;;;;;;5076573;28;20419;-70
2024/03/26 05:47:32;;;;;;;6.17;2.40;;;5.70;1.00;;;;;;5055941;28;20442;-71
2024/03/26 05:49:58;;;;;;;4.03;2.07;;;5.70;1.00;;;;;;5055837;28;20430;-70
2024/03/26 05:52:24;;;;;;;2.70;2.13;;;5.80;1.00;;;;;;5073403;28;20235;-71
2024/03/26 05:54:50;;;;;;;3.80;2.20;;;5.80;1.00;;;;;;5073013;28;20228;-71
2024/03/26 05:57:16;;;;;;;3.20;2.00;;;5.90;1.00;;;;;;5073099;28;20178;-71
2024/03/26 05:59:41;;;;;;;3.70;2.10;;;5.90;1.00;;;;;;5072039;28;20423;-70
2024/03/26 06:02:07;;;;;;;4.57;1.97;;;6.10;1.00;;;;;;5071753;28;20576;-70
2024/03/26 06:04:33;;;;;;;4.30;2.57;;;6.10;1.00;;;;;;5072758;28;20182;-71
2024/03/26 06:06:58;;;;;;;5.17;3.10;;;6.00;1.00;;;;;;5071643;28;20819;-71
2024/03/26 06:09:24;;;;;;;4.73;2.00;;;6.10;1.00;;;;;;5072957;28;20177;-70
2024/03/26 06:11:49;;;;;;;3.43;2.23;;;6.20;1.00;;;;;;5072606;28;20268;-71
2024/03/26 06:14:15;;;;;;;3.87;2.80;;;6.40;1.00;;;;;;5071536;28;20201;-71
2024/03/26 06:16:41;;;;;;;5.07;2.93;;;6.40;1.00;;;;;;5072455;28;20177;-71
2024/03/26 06:19:07;;;;;;;3.50;1.80;;;6.40;1.00;;;;;;5072381;28;20195;-71
2024/03/26 06:21:32;;;;;;;4.97;2.00;;;6.40;1.00;;;;;;5071145;28;20947;-71
2024/03/26 06:23:58;;;;;;;5.47;2.47;;;6.30;1.00;;;;;;5071182;28;20215;-71
2024/03/26 06:26:23;;;;;;;4.87;2.80;;;6.40;1.00;;;;;;5053980;28;20235;-73
2024/03/26 06:28:49;;;;;;;7.63;4.23;;;6.40;1.00;;;;;;5072425;28;20178;-73
2024/03/26 06:31:15;;;;;;;12.10;4.33;;;6.40;1.00;;;;;;5071930;28;20217;-76
2024/03/26 06:33:40;;;;;;;7.90;4.70;;;6.40;1.00;;;;;;5072523;28;20319;-74
2024/03/26 06:36:08;;;;;;;7.60;3.97;;;6.60;1.00;;;;;;5072538;28;20178;-73
2024/03/26 06:38:36;;;;;;;4.10;3.07;;;6.80;1.00;;;;;;5071000;28;20174;-72
2024/03/26 06:41:01;;;;;;;4.23;2.23;;;6.80;1.00;;;;;;5072081;28;20447;-72
2024/03/26 06:43:27;;;;;;;6.03;3.20;;;6.90;1.00;;;;;;5072464;28;20401;-73
2024/03/26 06:45:53;;;;;;;3.00;2.20;;;6.90;1.00;;;;;;5071980;28;20182;-72
2024/03/26 06:48:19;;;;;;;3.80;2.80;;;6.90;1.00;;;;;;5070559;28;20173;-72
2024/03/26 06:50:44;;;;;;;5.57;2.80;;;7.00;1.00;;;;;;5072115;28;20422;-73
2024/03/26 06:53:10;;;;;;;3.93;3.00;;;7.10;1.00;;;;;;5087981;28;20602;-72
2024/03/26 06:55:36;;;;;;;2.50;2.10;;;7.30;1.00;;;;;;5073512;28;20799;-72
2024/03/26 06:58:02;;;;;;;3.53;2.40;;;7.50;1.00;;;;;;5073641;28;20167;-72
2024/03/26 07:00:28;;;;;;;5.87;3.50;;;7.70;1.00;;;;;;5075588;28;20495;-72
2024/03/26 07:02:57;;;;;;;5.10;2.83;;;7.90;1.00;;;;;;5081868;28;20217;-71
2024/03/26 07:05:25;;;;;;;4.80;2.40;;;8.00;1.00;;;;;;5072034;28;20412;-73
2024/03/26 07:07:51;;;;;;;3.83;2.60;;;8.00;1.00;;;;;;5070712;28;20464;-71
2024/03/26 07:10:16;;;;;;;4.83;3.17;;;8.10;1.00;;;;;;5071770;28;20448;-71
2024/03/26 07:12:42;;;;;;;7.03;3.30;;;8.20;1.00;;;;;;5071412;28;20248;-71
2024/03/26 07:15:08;;;;;;;3.27;2.50;;;8.30;1.00;;;;;;5071434;28;20205;-71
2024/03/26 07:17:34;;;;;;;3.93;2.90;;;8.50;1.00;;;;;;5070452;28;20588;-71
2024/03/26 07:19:59;;;;;;;3.33;2.83;;;8.70;1.00;;;;;;5070696;28;20417;-72
2024/03/26 07:22:25;;;;;;;2.90;2.40;;;8.90;1.00;;;;;;5071699;28;20196;-72
2024/03/26 07:24:51;;;;;;;11.10;3.70;;;9.10;1.00;;;;;;5071915;28;20186;-72
2024/03/26 07:27:17;;;;;;;5.87;3.63;;;9.10;1.00;;;;;;5071710;28;20226;-71
2024/03/26 07:29:42;;;;;;;5.73;4.23;;;9.20;1.00;;;;;;5072340;28;20418;-70
2024/03/26 07:32:08;;;;;;;4.07;3.30;;;9.10;1.00;;;;;;5071862;28;20283;-71
2024/03/26 07:34:35;;;;;;;4.50;3.77;;;9.00;1.00;;;;;;5071771;28;20252;-72
2024/03/26 07:37:00;;;;;;;5.63;3.27;;;8.80;1.00;;;;;;5071442;28;20449;-73
2024/03/26 07:39:26;;;;;;;4.67;3.70;;;8.90;1.00;;;;;;5071785;28;20763;-72
2024/03/26 07:41:51;;;;;;;5.67;4.13;;;8.80;1.00;;;;;;5071391;28;20220;-73
2024/03/26 07:44:17;;;;;;;6.57;3.43;;;8.90;1.00;;;;;;5075621;28;20309;-73
2024/03/26 07:46:44;;;;;;;6.77;4.20;;;9.10;1.00;;;;;;5074147;28;20253;-72
2024/03/26 07:49:09;;;;;;;6.63;4.70;;;9.10;1.00;;;;;;5075642;28;20192;-73
2024/03/26 07:51:36;;;;;;;7.30;4.00;;;9.20;1.00;;;;;;5073790;28;20470;-73
2024/03/26 07:54:02;;;;;;;6.50;4.40;;;9.20;1.00;;;;;;5072987;28;20212;-73
2024/03/26 07:56:27;;;;;;;5.20;3.07;;;9.40;1.00;;;;;;5065683;28;20416;-73
2024/03/26 07:58:53;;;;;;;4.80;3.70;;;9.60;1.00;;;;;;5071031;28;20190;-70
2024/03/26 08:01:18;;;;;;;5.20;4.00;;;9.70;1.00;;;;;;5050764;28;20201;-73
2024/03/26 08:03:45;;;;;;;14.43;3.90;;;9.90;1.00;;;;;;5050971;28;20462;-75
2024/03/26 08:06:10;;;;;;;6.33;3.93;;;9.90;1.00;;;;;;5032871;28;20186;-71
2024/03/26 08:08:36;;;;;;;7.33;4.17;;;10.10;1.00;;;;;;5061492;28;20432;-72
2024/03/26 08:11:02;;;;;;;4.77;3.50;;;10.40;1.00;;;;;;5051713;28;20267;-71
2024/03/26 08:13:28;;;;;;;8.00;4.33;;;10.80;1.00;;;;;;5076973;28;20739;-69
2024/03/26 08:15:54;;;;;;;4.20;3.80;;;11.00;1.00;;;;;;5057593;28;20478;-72
2024/03/26 08:18:19;;;;;;;8.33;5.07;;;11.20;1.00;;;;;;5067903;28;20789;-71
2024/03/26 08:20:45;;;;;;;5.40;4.63;;;10.90;1.00;;;;;;5070325;28;20191;-70
2024/03/26 08:23:11;;;;;;;6.23;4.10;;;11.20;1.00;;;;;;5053413;28;20608;-72
2024/03/26 08:25:37;;;;;;;8.53;3.77;;;;;;;;;;5052401;28;20688;-71
2024/03/26 08:28:03;;;;;;;6.60;4.07;;;;;;;;;;5070369;28;20190;-70
2024/03/26 08:30:29;;;;;;;5.20;4.17;;;;;;;;;;5070628;28;20412;-72
2024/03/26 08:32:55;;;;;;;5.83;4.37;;;;;;;;;;5069863;28;20446;-72
2024/03/26 08:35:20;;;;;;;6.80;4.40;;;14.60;1.00;;;;;;5045793;28;20889;-72
2024/03/26 08:37:46;;;;;;;6.37;5.13;;;14.70;1.00;;;;;;5051614;28;20440;-71
2024/03/26 08:40:12;;;;;;;6.67;4.60;;;14.70;1.00;;;;;;5065721;28;20656;-70
2024/03/26 08:42:40;;;;;;;4.70;4.23;;;15.60;1.00;;;;;;5055533;28;20218;-71
2024/03/26 08:45:06;;;;;;;6.50;5.37;;;16.50;1.00;;;;;;5077881;28;20455;-72
2024/03/26 08:47:33;;;;;;;9.43;4.63;;;15.50;1.00;;;;;;5070535;28;20522;-70
2024/03/26 08:49:59;;;;;;;7.27;4.43;;;14.40;1.00;;;;;;5067276;28;20411;-71
2024/03/26 08:52:24;;;;;;;4.47;3.97;;;13.40;1.00;;;;;;5053273;28;20983;-71
2024/03/26 08:54:50;;;;;;;4.90;4.50;;;12.80;1.00;;;;;;5055488;28;20198;-69
2024/03/26 08:57:15;;;;;;;8.70;4.33;;;12.50;1.00;;;;;;5055119;28;20217;-71
2024/03/26 08:59:43;;;;;;;4.83;4.03;;;12.30;1.00;;;;;;5051339;28;20186;-71
2024/03/26 09:02:08;;;;;;;8.33;4.20;;;12.10;1.00;;;;;;5045645;28;20201;-71
2024/03/26 09:04:35;;;;;;;4.30;3.90;;;12.00;1.00;;;;;;5052777;28;20434;-70
2024/03/26 09:07:01;;;;;;;4.70;4.30;;;12.00;1.00;;;;;;5074604;23;20270;-73
2024/03/26 09:09:27;;;;;;;4.87;4.40;;;11.90;1.00;;;;;;5052832;28;20413;-73
2024/03/26 09:11:53;;;;;;;5.67;4.27;;;12.00;1.00;;;;;;5052461;28;20247;-70
2024/03/26 09:14:18;;;;;;;6.57;4.40;;;11.90;1.00;;;;;;5053584;28;20960;-70
2024/03/26 09:16:44;;;;;;;5.33;3.93;;;12.00;1.00;;;;;;5063894;28;20247;-70
2024/03/26 09:19:09;;;;;;;5.37;3.53;;;12.10;1.00;;;;;;5070515;28;20175;-69
2024/03/26 09:21:35;;;;;;;4.90;4.10;;;12.10;1.00;;;;;;5054204;28;20175;-69
2024/03/26 09:24:01;;;;;;;7.93;3.27;;;12.30;1.00;;;;;;5055084;28;20181;-69
2024/03/26 09:26:27;;;;;;;4.57;4.10;;;12.40;1.00;;;;;;5054202;28;20521;-69
2024/03/26 09:28:52;;;;;;;7.57;4.87;;;12.60;1.00;;;;;;5054490;28;20211;-69
2024/03/26 09:31:18;;;;;;;6.33;4.53;;;12.80;1.00;;;;;;5059830;28;20563;-69
2024/03/26 09:33:44;;;;;;;4.93;3.40;;;13.00;1.00;;;;;;5053842;28;20209;-69
2024/03/26 09:36:10;;;;;;;5.37;4.03;;;12.80;1.00;;;;;;5035352;28;20433;-70
2024/03/26 09:38:35;;;;;;;5.57;4.50;;;12.90;1.00;;;;;;5053213;28;20641;-69
2024/03/26 09:41:02;;;;;;;6.93;3.83;;;13.00;1.00;;;;;;5053079;28;20187;-69
2024/03/26 09:43:28;;;;;;;4.70;4.03;;;13.00;1.00;;;;;;5053159;28;20287;-69
2024/03/26 09:45:56;;;;;;;8.07;4.47;;;13.30;1.00;;;;;;5052904;28;20421;-69
2024/03/26 09:48:23;;;;;;;10.53;4.50;;;13.40;1.00;;;;;;5053136;28;20416;-67
2024/03/26 09:50:50;;;;;;;9.53;4.93;;;13.50;1.00;;;;;;5053117;28;20420;-68
2024/03/26 09:53:17;;;;;;;6.23;3.67;;;13.90;1.00;;;;;;5052887;28;20841;-67
2024/03/26 09:55:44;;;;;;;5.50;4.63;;;14.00;1.00;;;;;;5052400;28;20552;-68
2024/03/26 09:58:10;;;;;;;4.00;2.90;;;13.80;1.00;;;;;;5052296;28;20486;-67
2024/03/26 10:00:38;;;;;;;6.00;4.23;;;13.80;1.00;;;;;;5052644;28;20408;-67
2024/03/26 10:03:06;;;;;;;5.17;4.63;;;13.70;1.00;;;;;;5034819;28;20185;-67
2024/03/26 10:05:31;;;;;;;5.70;3.63;;;13.50;1.00;;;;;;5052297;28;20405;-67
2024/03/26 10:07:57;;;;;;;8.43;4.77;;;13.50;1.00;;;;;;5051538;28;20945;-67
2024/03/26 10:10:23;;;;;;;7.90;4.23;;;13.70;1.00;;;;;;5034433;28;20184;-67
2024/03/26 10:12:48;;;;;;;7.27;4.77;;;13.70;1.00;;;;;;5052328;28;20528;-67
2024/03/26 10:15:14;;;;;;;9.50;4.30;;;13.80;1.00;;;;;;5052197;28;20552;-68
2024/03/26 10:17:39;;;;;;;5.53;4.73;;;13.60;1.00;;;;;;5052002;28;20191;-67
2024/03/26 10:20:06;;;;;;;5.53;4.83;;;13.80;1.00;;;;;;5052327;28;20535;-67
2024/03/26 10:22:31;;;;;;;5.50;4.50;;;13.90;1.00;;;;;;5052172;28;20202;-67
2024/03/26 10:24:57;;;;;;;5.40;3.73;;;13.90;1.00;;;;;;5052115;28;20412;-67
2024/03/26 10:27:22;;;;;;;4.63;3.73;;;13.90;1.00;;;;;;5051819;28;20236;-67
2024/03/26 10:29:52;;;;;;;5.63;4.17;;;14.00;1.00;;;;;;5052097;28;20237;-67
2024/03/26 10:32:22;;;;;;;13.37;5.23;;;14.20;1.00;;;;;;5051998;28;20178;-67
2024/03/26 10:34:56;;;;;;;4.90;4.40;;;14.30;1.00;;;;;;5051873;28;20821;-68
2024/03/26 10:37:24;;;;;;;4.73;4.00;;;14.30;1.00;;;;;;5051666;28;20512;-68
2024/03/26 10:39:55;;;;;;;6.90;4.30;;;14.20;1.00;;;;;;5050530;28;20944;-68
2024/03/26 10:42:23;;;;;;;4.53;3.30;;;14.30;1.00;;;;;;5051945;28;20433;-69
2024/03/26 10:44:49;;;;;;;4.83;3.80;;;14.60;1.00;;;;;;5051498;28;20474;-69
2024/03/26 10:47:15;;;;;;;4.40;3.13;;;14.90;1.00;;;;;;5051686;28;20925;-68
2024/03/26 10:49:41;;;;;;;6.43;3.60;;;14.90;1.00;;;;;;5034044;28;20482;-68
2024/03/26 10:52:09;;;;;;;3.60;3.03;;;15.00;1.00;;;;;;5052101;28;20225;-69
2024/03/26 10:54:36;;;;;;;5.20;3.87;;;15.10;1.00;;;;;;5051646;28;20468;-69
2024/03/26 10:57:02;;;;;;;5.90;3.77;;;15.20;1.00;;;;;;5033687;28;20433;-69
2024/03/26 10:59:28;;;;;;;7.30;4.90;;;;;;;;;;5051718;28;20431;-68
2024/03/26 11:01:55;;;;;;;3.40;3.13;;;15.60;1.00;;;;;;5051701;28;20405;-68
2024/03/26 11:04:20;;;;;;;6.10;4.00;;;15.80;1.00;;;;;;5050087;28;20428;-69
2024/03/26 11:06:46;;;;;;;3.27;2.97;;;15.50;1.00;;;;;;5051333;28;20599;-68
2024/03/26 11:09:15;;;;;;;5.87;4.03;;;15.50;1.00;;;;;;5051195;28;20213;-68
2024/03/26 11:11:41;;;;;;;5.83;4.03;;;15.60;1.00;;;;;;5053381;28;20272;-68
2024/03/26 11:14:07;;;;;;;6.77;3.90;;;15.90;1.00;;;;;;5066302;28;20695;-69
2024/03/26 11:16:40;;;;;;;4.40;3.20;;;;;;;;;;5068109;28;20199;-68
2024/03/26 11:19:19;;;;;;;4.40;4.00;;;16.60;1.00;;;;;;5063279;28;20720;-68
2024/03/26 11:21:47;;;;;;;4.17;3.20;;;16.40;1.00;;;;;;5075785;28;20776;-69
2024/03/26 11:24:23;;;;;;;3.53;3.03;;;;;;;;;;5075252;28;20922;-68
2024/03/26 11:26:49;;;;;;;4.80;3.63;;;;;;;;;;5075557;28;20585;-69
2024/03/26 11:29:15;;;;;;;5.33;3.60;;;;;;;;;;5072169;28;20432;-70
2024/03/26 11:31:42;;;;;;;3.47;3.17;;;;;;;;;;5063016;28;20445;-69
2024/03/26 11:34:08;;;;;;;4.97;3.73;;;;;;;;;;5074773;28;20463;-70
2024/03/26 11:36:36;;;;;;;6.00;3.73;;;;;;;;;;5068792;28;20452;-69
2024/03/26 11:39:02;;;;;;;4.30;3.20;;;;;;;;;;5073615;28;20447;-69
2024/03/26 11:41:29;;;;;;;11.63;4.23;;;;;;;;;;5075104;28;20470;-70
2024/03/26 11:43:57;;;;;;;3.90;3.50;;;17.00;1.00;;;;;;5066064;28;20510;-69
2024/03/26 11:46:23;;;;;;;3.60;3.30;;;16.90;1.00;;;;;;5075105;28;20428;-69
2024/03/26 11:49:03;;;;;;;7.00;3.53;;;16.90;1.00;;;;;;5074938;28;20443;-69
2024/03/26 11:51:29;;;;;;;3.83;3.27;;;16.60;1.00;;;;;;5062430;28;20515;-69
2024/03/26 11:53:55;;;;;;;3.30;3.00;;;;;;;;;;5054786;28;20460;-69
2024/03/26 11:56:21;;;;;;;3.43;3.13;;;17.60;1.00;;;;;;5054662;28;20433;-69
2024/03/26 11:58:50;;;;;;;4.53;2.70;;;17.60;1.00;;;;;;5054529;28;20696;-69
2024/03/26 12:01:20;;;;;;;2.83;2.63;;;;;;;;;;5056725;28;20421;-68
2024/03/26 12:03:56;;;;;;;3.33;3.00;;;18.10;1.00;;;;;;5070084;28;20422;-69
2024/03/26 12:06:26;;;;;;;2.70;2.50;;;18.40;1.00;;;;;;5054230;28;20499;-69
2024/03/26 12:08:57;;;;;;;3.37;3.13;;;18.50;1.00;;;;;;5074485;28;20412;-69
2024/03/26 12:11:23;;;;;;;2.80;2.60;;;18.80;1.00;;;;;;5056872;28;20499;-68
2024/03/26 12:13:49;;;;;;;3.80;3.40;;;18.90;1.00;;;;;;5059810;28;20424;-69
2024/03/26 12:16:28;;;;;;;3.40;3.10;;;18.90;1.00;;;;;;5054624;28;20433;-68
2024/03/26 12:18:55;;;;;;;3.70;3.40;;;18.90;1.00;;;;;;5064623;28;20420;-67
2024/03/26 12:21:23;;;;;;;3.73;3.30;;;19.00;1.00;;;;;;5056827;28;20498;-67
2024/03/26 12:23:55;;;;;;;5.13;4.60;;;19.00;1.00;;;;;;5074839;28;20427;-69
2024/03/26 12:26:21;;;;;;;3.93;3.63;;;18.80;1.00;;;;;;5074513;28;20481;-69
2024/03/26 12:28:48;;;;;;;3.60;3.30;;;18.80;1.00;;;;;;5066042;28;20417;-68
2024/03/26 12:31:16;;;;;;;5.30;3.83;;;19.10;1.00;;;;;;5054214;28;20772;-69
2024/03/26 12:33:48;;;;;;;4.00;3.03;;;19.10;1.00;;;;;;5054508;28;20419;-69
2024/03/26 12:36:14;;;;;;;3.93;2.67;;;19.30;1.00;;;;;;5054297;28;20428;-69
2024/03/26 12:38:40;;;;;;;3.33;3.03;;;19.30;1.00;;;;;;5054265;28;20440;-70
2024/03/26 12:41:07;;;;;;;3.20;2.90;;;19.40;1.00;;;;;;5054257;28;20459;-70
2024/03/26 12:43:33;;;;;;;3.13;2.83;;;19.20;1.00;;;;;;5054305;28;20405;-69
2024/03/26 12:45:59;;;;;;;3.27;2.97;;;18.90;1.00;;;;;;5054705;28;20425;-70
2024/03/26 12:48:26;;;;;;;16.83;3.30;;;18.60;1.00;;;;;;5055921;28;20823;-69
2024/03/26 12:50:57;;;;;;;2.70;2.50;;;18.60;1.00;;;;;;5053642;28;20563;-70
2024/03/26 12:53:22;;;;;;;3.73;3.30;;;18.60;1.00;;;;;;5068162;28;20408;-71
2024/03/26 12:55:48;;;;;;;3.27;2.97;;;18.60;1.00;;;;;;5073646;28;20509;-69
2024/03/26 12:58:13;;;;;;;3.03;2.83;;;18.80;1.00;;;;;;5073804;28;20192;-68
2024/03/26 13:00:55;;;;;;;3.53;3.23;;;18.80;1.00;;;;;;5074137;28;20664;-70
2024/03/26 13:03:21;;;;;;;2.83;2.50;;;18.60;1.00;;;;;;5071526;28;20178;-71